Time;durP1;ratioP1;P1;durP2;ratioP2;P2;SDS_P1;SDS_P2;PMS_P1;PMS_P2;Temp;Humidity;BMP_temperature;BMP_pressure;BME280_temperature;BME280_humidity;BME280_pressure;Samples;Min_cycle;Max_cycle;Signal;HPM_P1;HPM_P2
2021/01/16 00:00:08;;;;;;;;;;;;;;;8.72;45.79;101205.44;5122748;27;19916;-87
2021/01/16 00:02:53;;;;;;;;;;;;;;;8.78;49.58;101204.28;5121314;28;19912;-88
2021/01/16 00:05:38;;;;;;;;;;;;;;;8.41;45.34;101208.50;5125426;27;20289;-88
2021/01/16 00:08:23;;;;;;;;;;;;;;;8.34;45.16;101213.47;5107124;28;19912;-88
2021/01/16 00:11:09;;;;;;;;;;;;;;;8.38;47.03;101211.00;5118251;28;19915;-88
2021/01/16 00:13:53;;;;;;;;;;;;;;;8.42;49.60;101212.84;5125559;28;19911;-87
2021/01/16 00:16:38;;;;;;;;;;;;;;;8.28;46.17;101220.00;5129122;27;19919;-88
2021/01/16 00:19:23;;;;;;;;;;;;;;;8.27;47.78;101212.97;5128888;27;19941;-88
2021/01/16 00:22:08;;;;;;;;;;;;;;;8.33;48.05;101213.75;5126774;27;19915;-88
2021/01/16 00:24:53;;;;;;;;;;;;;;;8.54;53.75;101221.34;5129027;27;19907;-88
2021/01/16 00:27:37;;;;;;;;;;;;;;;8.84;59.93;101230.22;5129099;27;19911;-87
2021/01/16 00:30:23;;;;;;;;;;;;;;;8.92;60.75;101235.00;5143140;27;19911;-88
2021/01/16 00:33:28;;;;;;;;;;;;;;;8.95;56.15;101227.09;5137866;27;19911;-88
2021/01/16 00:36:13;;;;;;;;;;;;;;;8.69;49.42;101212.22;5114737;28;19916;-87
2021/01/16 00:38:57;;;;;;;;;;;;;;;8.80;53.57;101221.03;5105855;28;19912;-88
2021/01/16 00:41:41;;;;;;;;;;;;;;;8.61;49.11;101210.16;5107104;28;19915;-88
2021/01/16 00:44:26;;;;;;;;;;;;;;;8.57;50.22;101211.84;5122884;28;19911;-88
2021/01/16 00:47:10;;;;;;;;;;;;;;;8.83;57.50;101212.34;5116022;28;19912;-89
2021/01/16 00:49:54;;;;;;;;;;;;;;;9.00;62.69;101223.50;5108310;28;19912;-88
2021/01/16 00:52:40;;;;;;;;;;;;;;;9.09;63.72;101226.38;5120343;27;20378;-89
2021/01/16 00:55:26;;;;;;;;;;;;;;;9.06;59.54;101227.75;5146433;27;19915;-88
2021/01/16 00:58:14;;;;;;;;;;;;;;;9.22;64.16;101220.22;5146539;27;19912;-87
2021/01/16 01:01:00;;;;;;;;;;;;;;;9.28;64.87;101217.13;5113801;28;19912;-88
2021/01/16 01:03:50;;;;;;;;;;;;;;;9.25;62.69;101231.28;5112251;28;19911;-89
2021/01/16 01:06:36;;;;;;;;;;;;;;;8.70;52.76;101221.97;5114611;27;19912;-88
2021/01/16 01:09:21;;;;;;;;;;;;;;;8.90;57.53;101231.75;5105180;28;19912;-89
2021/01/16 01:12:06;;;;;;;;;;;;;;;8.89;56.04;101236.38;5126919;27;19911;-88
2021/01/16 01:14:50;;;;;;;;;;;;;;;8.93;58.21;101229.28;5146616;27;19911;-87
2021/01/16 01:17:35;;;;;;;;;;;;;;;8.87;55.01;101227.75;5126968;27;19911;-88
2021/01/16 01:20:21;;;;;;;;;;;;;;;9.01;61.04;101242.19;5125268;27;19911;-88
2021/01/16 01:23:06;;;;;;;;;;;;;;;9.10;62.99;101245.06;5136782;22;19920;-84
2021/01/16 01:25:50;;;;;;;;;;;;;;;9.07;61.18;101245.66;5064715;28;19916;-84
2021/01/16 01:28:35;;;;;;;;;;;;;;;8.97;56.91;101234.94;5058130;28;19912;-84
2021/01/16 01:31:19;;;;;;;;;;;;;;;9.06;61.55;101238.59;5080093;28;19912;-85
2021/01/16 01:34:04;;;;;;;;;;;;;;;8.95;57.12;101246.06;5052615;28;19912;-85
2021/01/16 01:36:49;;;;;;;;;;;;;;;8.94;56.19;101249.06;5038717;28;19928;-87
2021/01/16 01:39:33;;;;;;;;;;;;;;;8.95;57.03;101250.69;5065654;28;19917;-87
2021/01/16 01:42:19;;;;;;;;;;;;;;;8.86;55.60;101257.84;5056726;28;20290;-87
2021/01/16 01:45:08;;;;;;;;;;;;;;;8.96;58.92;101255.81;5060947;28;19912;-87
2021/01/16 01:47:53;;;;;;;;;;;;;;;8.87;56.62;101249.44;5074921;28;20274;-88
2021/01/16 01:50:38;;;;;;;;;;;;;;;9.00;62.40;101256.84;5058371;28;19912;-88
2021/01/16 01:53:23;;;;;;;;;;;;;;;8.96;59.37;101249.59;5070120;28;19912;-87
2021/01/16 01:56:07;;;;;;;;;;;;;;;9.03;63.19;101255.47;5068813;28;19920;-87
2021/01/16 01:58:53;;;;;;;;;;;;;;;9.00;62.45;101254.13;5067550;28;19908;-87
2021/01/16 02:01:43;;;;;;;;;;;;;;;9.06;64.28;101256.78;5084432;28;19912;-87
2021/01/16 02:04:32;;;;;;;;;;;;;;;9.09;64.75;101251.59;5089065;28;19916;-86
2021/01/16 02:07:23;;;;;;;;;;;;;;;9.12;64.99;101253.72;5086259;28;19913;-87
2021/01/16 02:10:09;;;;;;;;;;;;;;;8.99;61.54;101252.50;5074576;28;19912;-87
2021/01/16 02:12:55;;;;;;;;;;;;;;;9.04;63.42;101259.78;5072835;28;19912;-86
2021/01/16 02:15:53;;;;;;;;;;;;;;;9.19;66.26;101265.03;5054748;28;19916;-87
2021/01/16 02:18:38;;;;;;;;;;;;;;;9.25;66.09;101268.44;5054474;28;19913;-87
2021/01/16 02:21:24;;;;;;;;;;;;;;;9.40;67.58;101265.53;5068129;28;20295;-87
2021/01/16 02:24:11;;;;;;;;;;;;;;;9.42;67.62;101266.03;5085073;28;20179;-87
2021/01/16 02:27:03;;;;;;;;;;;;;;;9.48;67.34;101272.22;5070467;28;19912;-87
2021/01/16 02:29:49;;;;;;;;;;;;;;;9.58;67.92;101266.63;5068490;28;20402;-87
2021/01/16 02:32:35;;;;;;;;;;;;;;;9.59;67.13;101268.25;5084529;28;19912;-86
2021/01/16 02:35:21;;;;;;;;;;;;;;;9.66;66.80;101266.75;5056187;28;19920;-87
2021/01/16 02:38:24;;;;;;;;;;;;;;;9.68;67.39;101267.28;5061910;28;19912;-86
2021/01/16 02:41:28;;;;;;;;;;;;;;;9.66;67.01;101265.94;5068864;28;19912;-86
2021/01/16 02:44:19;;;;;;;;;;;;;;;9.60;66.82;101269.88;5052313;28;19912;-85
2021/01/16 02:47:24;;;;;;;;;;;;;;;9.65;67.21;101267.06;5066886;28;19913;-85
2021/01/16 02:50:09;;;;;;;;;;;;;;;9.56;66.82;101266.91;5068149;28;19920;-85
2021/01/16 02:52:56;;;;;;;;;;;;;;;9.64;67.95;101270.88;5071104;28;19912;-85
2021/01/16 02:55:40;;;;;;;;;;;;;;;9.64;67.29;101270.88;5077297;28;19916;-88
2021/01/16 02:58:25;;;;;;;;;;;;;;;9.73;67.90;101267.19;5059730;28;19913;-89
2021/01/16 03:01:09;;;;;;;;;;;;;;;9.79;68.01;101268.75;5063042;28;19916;-86
2021/01/16 03:03:54;;;;;;;;;;;;;;;9.81;68.25;101273.84;5074005;28;20322;-87
2021/01/16 03:06:49;;;;;;;;;;;;;;;9.80;67.84;101264.13;5063920;28;19912;-87
2021/01/16 03:09:35;;;;;;;;;;;;;;;9.78;67.47;101264.41;5055333;28;19913;-85
2021/01/16 03:12:20;;;;;;;;;;;;;;;9.73;67.28;101269.91;5055354;28;19916;-85
2021/01/16 03:15:10;;;;;;;;;;;;;;;9.77;67.80;101276.38;5060564;28;19912;-85
2021/01/16 03:17:58;;;;;;;;;;;;;;;9.76;67.80;101268.50;5072656;28;19912;-85
2021/01/16 03:20:42;;;;;;;;;;;;;;;9.83;68.07;101274.38;5083662;28;19912;-85
2021/01/16 03:23:31;;;;;;;;;;;;;;;9.83;68.26;101272.47;5061837;28;19912;-83
2021/01/16 03:26:15;;;;;;;;;;;;;;;9.71;67.96;101265.88;5071335;28;19942;-85
2021/01/16 03:28:59;;;;;;;;;;;;;;;9.67;67.98;101262.94;5069396;28;19912;-85
2021/01/16 03:31:44;;;;;;;;;;;;;;;9.71;68.33;101261.25;5082406;28;19912;-84
2021/01/16 03:34:28;;;;;;;;;;;;;;;9.66;67.55;101274.09;5054855;28;19920;-84
2021/01/16 03:37:13;;;;;;;;;;;;;;;9.62;67.35;101270.38;5067057;28;19916;-84
2021/01/16 03:39:57;;;;;;;;;;;;;;;9.61;67.77;101271.47;5083651;28;19912;-85
2021/01/16 03:42:42;;;;;;;;;;;;;;;9.66;68.45;101272.19;5071686;28;20007;-84
2021/01/16 03:45:26;;;;;;;;;;;;;;;9.65;67.20;101277.94;5070360;28;19912;-84
2021/01/16 03:48:11;;;;;;;;;;;;;;;9.72;68.47;101276.44;5066687;28;19916;-85
2021/01/16 03:50:55;;;;;;;;;;;;;;;9.80;68.60;101280.41;5071774;28;20370;-85
2021/01/16 03:53:40;;;;;;;;;;;;;;;9.74;68.26;101284.31;5067980;28;19912;-85
2021/01/16 03:56:25;;;;;;;;;;;;;;;9.68;68.48;101280.88;5078633;28;19916;-86
2021/01/16 03:59:09;;;;;;;;;;;;;;;9.69;67.40;101282.47;5062657;28;19913;-86
2021/01/16 04:01:54;;;;;;;;;;;;;;;9.63;68.02;101280.13;5072346;28;20366;-87
2021/01/16 04:04:39;;;;;;;;;;;;;;;9.64;68.10;101281.75;5066049;28;19913;-86
2021/01/16 04:07:24;;;;;;;;;;;;;;;9.65;68.81;101283.38;5071648;28;19920;-87
2021/01/16 04:10:09;;;;;;;;;;;;;;;9.67;68.95;101289.28;5073794;28;20294;-86
2021/01/16 04:12:53;;;;;;;;;;;;;;;9.73;69.09;101279.97;5067168;28;19912;-87
2021/01/16 04:15:38;;;;;;;;;;;;;;;9.88;68.54;101287.88;5073392;28;19916;-87
2021/01/16 04:18:22;;;;;;;;;;;;;;;9.77;67.74;101281.00;5068394;28;19912;-87
2021/01/16 04:21:07;;;;;;;;;;;;;;;9.69;68.25;101285.19;5069011;28;19912;-87
2021/01/16 04:23:52;;;;;;;;;;;;;;;9.72;68.91;101287.31;5066974;28;19912;-87
2021/01/16 04:26:36;;;;;;;;;;;;;;;9.69;69.12;101287.91;5072569;28;20188;-87
2021/01/16 04:29:21;;;;;;;;;;;;;;;9.75;68.79;101289.41;5052880;28;19916;-90
2021/01/16 04:32:05;;;;;;;;;;;;;;;9.72;68.61;101286.50;5074944;28;19913;-89
2021/01/16 04:34:50;;;;;;;;;;;;;;;9.66;68.95;101287.69;5080348;28;19916;-90
2021/01/16 04:37:35;;;;;;;;;;;;;;;9.61;68.93;101291.28;5051187;28;19917;-89
2021/01/16 04:40:20;;;;;;;;;;;;;;;9.55;68.92;101286.22;5046913;28;19912;-87
2021/01/16 04:43:05;;;;;;;;;;;;;;;9.59;69.45;101285.34;5073998;28;19912;-88
2021/01/16 04:45:50;;;;;;;;;;;;;;;9.61;69.23;101295.91;5073578;28;19913;-87
2021/01/16 04:48:36;;;;;;;;;;;;;;;9.57;69.63;101292.97;5073888;28;19912;-87
2021/01/16 04:51:23;;;;;;;;;;;;;;;9.55;69.26;101286.22;5071061;28;19913;-88
2021/01/16 04:54:07;;;;;;;;;;;;;;;9.50;69.24;101291.75;5051344;28;19921;-88
2021/01/16 04:56:52;;;;;;;;;;;;;;;9.44;69.25;101294.53;5067176;28;19916;-87
2021/01/16 04:59:39;;;;;;;;;;;;;;;9.28;67.07;101295.03;5066346;28;19913;-88
2021/01/16 05:02:24;;;;;;;;;;;;;;;9.23;64.61;101295.09;5053989;28;20302;-88
2021/01/16 05:05:12;;;;;;;;;;;;;;;9.21;65.31;101289.13;5072694;28;19912;-88
2021/01/16 05:07:57;;;;;;;;;;;;;;;9.09;64.08;101297.72;5050833;28;19913;-86
2021/01/16 05:10:42;;;;;;;;;;;;;;;9.06;65.29;101295.56;5037887;28;19913;-86
2021/01/16 05:13:30;;;;;;;;;;;;;;;9.03;65.76;101301.59;5034818;28;19912;-86
2021/01/16 05:16:19;;;;;;;;;;;;;;;9.00;65.09;101302.16;5037529;28;19921;-87
2021/01/16 05:19:04;;;;;;;;;;;;;;;9.00;67.72;101307.56;5045018;28;19913;-87
2021/01/16 05:21:49;;;;;;;;;;;;;;;8.96;67.88;101304.66;5048563;28;19912;-85
2021/01/16 05:24:33;;;;;;;;;;;;;;;9.00;67.22;101307.56;5064743;28;19916;-85
2021/01/16 05:27:24;;;;;;;;;;;;;;;9.03;68.57;101307.00;5067523;28;19913;-85
2021/01/16 05:30:09;;;;;;;;;;;;;;;8.91;66.20;101303.91;5078138;28;19912;-85
2021/01/16 05:32:54;;;;;;;;;;;;;;;8.98;68.63;101307.06;5046844;28;19912;-86
2021/01/16 05:35:38;;;;;;;;;;;;;;;9.01;69.58;101306.47;5067567;28;19920;-85
2021/01/16 05:38:25;;;;;;;;;;;;;;;8.97;68.59;101306.28;5079986;28;19916;-85
2021/01/16 05:41:10;;;;;;;;;;;;;;;8.95;68.39;101308.44;5053772;28;19916;-85
2021/01/16 05:43:56;;;;;;;;;;;;;;;8.86;65.85;101309.38;5042511;28;19912;-84
2021/01/16 05:46:45;;;;;;;;;;;;;;;8.83;66.02;101304.53;5076012;28;19912;-86
2021/01/16 05:49:29;;;;;;;;;;;;;;;8.84;65.94;101306.13;5077934;28;19913;-84
2021/01/16 05:52:13;;;;;;;;;;;;;;;8.78;66.39;101304.59;5080073;28;19912;-84
2021/01/16 05:54:59;;;;;;;;;;;;;;;8.79;67.68;101307.00;5053608;28;20379;-84
2021/01/16 05:57:47;;;;;;;;;;;;;;;8.88;69.89;101312.63;5065892;28;19916;-84
2021/01/16 06:00:39;;;;;;;;;;;;;;;8.86;70.26;101314.81;5059857;28;19913;-85
2021/01/16 06:03:24;;;;;;;;;;;;;;;8.84;69.56;101312.38;5049632;28;19916;-85
2021/01/16 06:06:10;;;;;;;;;;;;;;;8.87;70.09;101316.41;5067473;28;20290;-84
2021/01/16 06:08:56;;;;;;;;;;;;;;;8.86;70.84;101315.63;5065119;28;19938;-85
2021/01/16 06:11:44;;;;;;;;;;;;;;;8.85;69.86;101315.88;5044021;28;19913;-85
2021/01/16 06:14:39;;;;;;;;;;;;;;;8.87;70.22;101319.94;5047731;28;19928;-85
2021/01/16 06:17:25;;;;;;;;;;;;;;;8.92;70.81;101316.38;5054575;28;20393;-84
2021/01/16 06:20:11;;;;;;;;;;;;;;;8.90;70.42;101327.50;5067479;28;19912;-84
2021/01/16 06:22:58;;;;;;;;;;;;;;;8.87;69.95;101329.97;5069695;28;20322;-83
2021/01/16 06:25:47;;;;;;;;;;;;;;;8.84;70.51;101322.41;5052412;28;19912;-85
2021/01/16 06:28:39;;;;;;;;;;;;;;;8.83;70.72;101326.25;5062989;28;19917;-87
2021/01/16 06:31:27;;;;;;;;;;;;;;;8.83;70.00;101337.09;5044679;28;19916;-87
2021/01/16 06:34:27;;;;;;;;;;;;;;;8.74;68.08;101327.94;5063966;28;19916;-88
2021/01/16 06:37:14;;;;;;;;;;;;;;;8.69;67.24;101325.28;5063585;28;19921;-87
2021/01/16 06:39:59;;;;;;;;;;;;;;;8.68;68.44;101329.94;5055202;28;19912;-87
2021/01/16 06:42:50;;;;;;;;;;;;;;;8.49;61.59;101329.81;5049564;28;19913;-87
2021/01/16 06:45:36;;;;;;;;;;;;;;;8.51;64.88;101333.06;5060647;28;19913;-87
2021/01/16 06:48:23;;;;;;;;;;;;;;;8.52;66.13;101334.69;5070684;28;19917;-88
2021/01/16 06:51:09;;;;;;;;;;;;;;;8.43;63.85;101327.47;5068953;28;19913;-85
2021/01/16 06:54:02;;;;;;;;;;;;;;;8.37;65.34;101321.28;5068469;28;19920;-85
2021/01/16 06:56:48;;;;;;;;;;;;;;;8.47;68.65;101326.63;5070018;28;19916;-85
2021/01/16 06:59:34;;;;;;;;;;;;;;;8.54;68.86;101323.53;5036826;28;20382;-84
2021/01/16 07:02:29;;;;;;;;;;;;;;;8.56;69.57;101333.03;5047522;28;19913;-85
2021/01/16 07:05:16;;;;;;;;;;;;;;;8.55;69.64;101333.31;5059738;28;19912;-86
2021/01/16 07:08:00;;;;;;;;;;;;;;;8.55;70.38;101328.69;5061120;28;19912;-86
2021/01/16 07:10:45;;;;;;;;;;;;;;;8.40;66.28;101328.03;5074948;28;19916;-86
2021/01/16 07:13:31;;;;;;;;;;;;;;;8.47;65.47;101328.50;5074028;28;19920;-87
2021/01/16 07:16:17;;;;;;;;;;;;;;;8.54;69.23;101328.97;5087951;28;19917;-85
2021/01/16 07:19:02;;;;;;;;;;;;;;;8.55;70.46;101331.41;5069202;28;19916;-86
2021/01/16 07:21:46;;;;;;;;;;;;;;;8.61;70.97;101336.78;5070180;28;20302;-87
2021/01/16 07:24:32;;;;;;;;;;;;;;;8.57;71.20;101334.63;5107367;22;20290;-84
2021/01/16 07:27:17;;;;;;;;;;;;;;;8.45;69.31;101331.50;5103854;28;19916;-83
2021/01/16 07:30:07;;;;;;;;;;;;;;;8.49;69.38;101332.53;5122225;28;19911;-83
2021/01/16 07:32:52;;;;;;;;;;;;;;;8.45;69.39;101326.06;5122337;28;19911;-84
2021/01/16 07:35:37;;;;;;;;;;;;;;;8.53;71.57;101333.56;5116854;28;19912;-85
2021/01/16 07:38:23;;;;;;;;;;;;;;;5.82;47.56;101327.16;5100126;28;19916;-78
2021/01/16 07:41:08;;;;;;;;;;;;;;;3.68;52.50;101325.44;5076892;28;19916;-78
2021/01/16 07:44:05;;;;;;;;;;;;;;;3.21;54.05;101327.91;5061700;28;19912;-79
2021/01/16 07:46:50;;;;;;;;;;;;;;;2.07;56.27;101331.16;5086335;28;19912;-77
2021/01/16 07:49:39;;;;;;;;;;;;;;;2.18;56.74;101332.16;5102405;28;19912;-78
2021/01/16 07:52:27;;;;;;;;;;;;;;;2.36;56.61;101331.88;5092655;28;19916;-79
2021/01/16 07:55:15;;;;;;;;;;;;;;;2.41;56.82;101323.09;5100007;28;19912;-76
2021/01/16 07:58:05;;;;;;;;;;;;;;;2.45;58.13;101335.75;5108050;28;20297;-79
2021/01/16 08:00:56;;;;;;;;;;;;;;;2.01;57.93;101336.69;5114927;28;19911;-77
2021/01/16 08:03:43;;;;;;;;;;;;;;;2.18;58.37;101334.00;5116237;28;19912;-79
2021/01/16 08:06:31;;;;;;;;;;;;;;;2.15;57.46;101340.66;5090867;28;19912;-79
2021/01/16 08:09:17;;;;;;;;;;;;;;;2.42;57.38;101341.63;5107526;28;20389;-79
2021/01/16 08:12:02;;;;;;;;;;;;;;;2.05;58.13;101337.81;5115227;28;19912;-80
2021/01/16 08:14:48;;;;;;;;;;;;;;;1.92;58.90;101341.66;5113052;28;20370;-89
2021/01/16 08:17:38;;;;;;;;;;;;;;;2.43;57.46;101353.19;5095325;28;19916;-87
2021/01/16 08:20:29;;;;;;;;;;;;;;;2.26;57.26;101341.63;5101179;28;19934;-86
2021/01/16 08:23:24;;;;;;;;;;;;;;;2.53;58.56;101338.06;5089295;28;19912;-89
2021/01/16 08:26:09;;;;;;;;;;;;;;;2.55;57.86;101343.97;5090390;28;19912;-89
2021/01/16 08:28:54;;;;;;;;;;;;;;;2.61;57.07;101344.03;5101303;28;19912;-89
2021/01/16 08:31:38;;;;;;;;;;;;;;;2.78;56.95;101340.28;5096306;28;20362;-90
2021/01/16 08:34:58;;;;;;;;;;;;;;;2.90;57.02;101342.81;5081289;28;20318;-89
2021/01/16 08:37:47;;;;;;;;;;;;;;;3.15;57.38;101348.53;5073475;28;19917;-89
2021/01/16 08:40:55;;;;;;;;;;;;;;;2.98;56.86;101345.91;5103334;28;19991;-87
2021/01/16 08:43:42;;;;;;;;;;;;;;;3.20;56.26;101347.78;5064723;28;19912;-88
2021/01/16 08:46:33;;;;;;;;;;;;;;;3.39;55.21;101346.41;5091544;28;19912;-84
2021/01/16 08:49:18;;;;;;;;;;;;;;;3.37;54.93;101349.31;5118951;28;19915;-85
2021/01/16 08:52:02;;;;;;;;;;;;;;;3.22;55.55;101349.16;5102416;28;19911;-85
2021/01/16 08:55:01;;;;;;;;;;;;;;;3.29;55.69;101355.16;5113398;28;20385;-87
2021/01/16 08:57:45;;;;;;;;;;;;;;;3.66;55.62;101352.59;5072541;28;19917;-88
2021/01/16 09:00:32;;;;;;;;;;;;;;;3.55;55.94;101355.44;5075154;28;19912;-85
2021/01/16 09:03:18;;;;;;;;;;;;;;;3.79;54.34;101367.53;5073682;28;19912;-85
2021/01/16 09:06:04;;;;;;;;;;;;;;;3.78;55.04;101360.50;5088005;28;19912;-85
2021/01/16 09:08:48;;;;;;;;;;;;;;;3.70;55.50;101363.66;5116202;28;19911;-88
2021/01/16 09:11:33;;;;;;;;;;;;;;;3.85;54.90;101361.13;5097364;28;19912;-86
2021/01/16 09:14:19;;;;;;;;;;;;;;;3.90;54.95;101354.97;5082901;28;19916;-85
2021/01/16 09:17:15;;;;;;;;;;;;;;;4.07;54.27;101364.53;5104101;28;19916;-84
2021/01/16 09:20:00;;;;;;;;;;;;;;;4.19;54.55;101369.78;5080679;28;19931;-85
2021/01/16 09:22:44;;;;;;;;;;;;;;;3.86;54.99;101371.63;5079398;28;19912;-86
2021/01/16 09:25:29;;;;;;;;;;;;;;;4.00;55.15;101380.09;5076041;28;19916;-85
2021/01/16 09:28:14;;;;;;;;;;;;;;;4.04;55.05;101375.03;5093817;28;19912;-86
2021/01/16 09:30:59;;;;;;;;;;;;;;;4.05;55.13;101376.66;5082842;28;20389;-86
2021/01/16 09:33:45;;;;;;;;;;;;;;;4.28;54.56;101385.19;5092103;28;19912;-86
2021/01/16 09:36:39;;;;;;;;;;;;;;;4.25;54.74;101372.25;5080066;28;20535;-86
2021/01/16 09:39:25;;;;;;;;;;;;;;;4.17;55.45;101374.59;5099986;28;19915;-86
2021/01/16 09:42:20;;;;;;;;;;;;;;;4.21;55.42;101371.16;5106024;28;19912;-84
2021/01/16 09:45:05;;;;;;;;;;;;;;;4.50;55.86;101379.72;5113192;28;19920;-86
2021/01/16 09:47:53;;;;;;;;;;;;;;;4.53;55.96;101376.50;5112199;28;19912;-84
2021/01/16 09:50:38;;;;;;;;;;;;;;;4.64;56.01;101371.97;5083685;28;20306;-85
2021/01/16 09:53:24;;;;;;;;;;;;;;;4.69;56.78;101377.41;5071333;28;20298;-84
2021/01/16 09:56:10;;;;;;;;;;;;;;;4.89;56.62;101369.44;5092868;28;19912;-85
2021/01/16 09:59:00;;;;;;;;;;;;;;;4.91;56.73;101370.00;5088853;28;19911;-84
2021/01/16 10:01:45;;;;;;;;;;;;;;;5.08;56.99;101370.63;5098473;28;19912;-84
2021/01/16 10:04:37;;;;;;;;;;;;;;;5.11;57.14;101386.28;5094876;28;19912;-84
2021/01/16 10:07:21;;;;;;;;;;;;;;;5.20;57.32;101388.47;5094394;28;19912;-85
2021/01/16 10:10:19;;;;;;;;;;;;;;;5.41;52.96;101382.09;5086296;28;19912;-84
2021/01/16 10:13:08;;;;;;;;;;;;;;;5.37;52.55;101375.59;5090921;28;19912;-84
2021/01/16 10:15:57;;;;;;;;;;;;;;;5.62;52.87;101374.88;5094012;28;20282;-84
2021/01/16 10:18:42;;;;;;;;;;;;;;;5.85;54.79;101377.06;5077977;28;19916;-86
2021/01/16 10:21:28;;;;;;;;;;;;;;;5.92;52.60;101367.69;5081725;28;19912;-85
2021/01/16 10:24:17;;;;;;;;;;;;;;;5.85;52.79;101366.28;5061574;28;19912;-85
2021/01/16 10:27:02;;;;;;;;;;;;;;;5.92;52.43;101359.59;5064367;28;19913;-84
2021/01/16 10:29:47;;;;;;;;;;;;;;;6.14;52.00;101358.53;5101695;28;20385;-82
2021/01/16 10:32:31;;;;;;;;;;;;;;;5.91;52.36;101355.25;5104485;28;19912;-86
2021/01/16 10:35:29;;;;;;;;;;;;;;;5.87;51.22;101354.19;5113479;28;20378;-83
2021/01/16 10:38:34;;;;;;;;;;;;;;;5.85;51.16;101352.78;5099684;28;19916;-83
2021/01/16 10:41:39;;;;;;;;;;;;;;;5.98;53.34;101350.41;5086103;28;19916;-85
2021/01/16 10:44:25;;;;;;;;;;;;;;;6.01;51.85;101352.56;5082822;28;19916;-81
2021/01/16 10:47:33;;;;;;;;;;;;;;;6.04;48.40;101353.13;5091727;28;20377;-84
2021/01/16 10:50:38;;;;;;;;;;;;;;;6.06;48.45;101349.06;5076051;28;19912;-82
2021/01/16 10:53:33;;;;;;;;;;;;;;;6.22;49.35;101342.59;5075951;28;19920;-84
2021/01/16 10:56:27;;;;;;;;;;;;;;;6.15;49.21;101330.41;5086358;28;19912;-86
2021/01/16 10:59:13;;;;;;;;;;;;;;;6.18;49.71;101335.28;5095008;28;19912;-85
2021/01/16 11:02:11;;;;;;;;;;;;;;;6.27;48.31;101323.69;5073348;28;19912;-87
2021/01/16 11:04:59;;;;;;;;;;;;;;;6.29;46.06;101318.81;5091125;28;19912;-86
2021/01/16 11:07:44;;;;;;;;;;;;;;;6.17;46.03;101317.47;5093320;28;19912;-85
2021/01/16 11:10:33;;;;;;;;;;;;;;;6.32;50.53;101315.56;5077838;28;19916;-83
2021/01/16 11:13:20;;;;;;;;;;;;;;;6.48;49.97;101308.25;5093182;28;19912;-84
2021/01/16 11:16:10;;;;;;;;;;;;;;;6.45;49.81;101311.47;5084036;28;20374;-84
2021/01/16 11:19:06;;;;;;;;;;;;;;;6.43;48.13;101308.25;5080788;28;19916;-82
2021/01/16 11:21:52;;;;;;;;;;;;;;;6.48;47.69;101310.97;5083886;28;19912;-84
2021/01/16 11:24:55;;;;;;;;;;;;;;;6.62;47.70;101309.28;5082427;28;19911;-82
2021/01/16 11:27:59;;;;;;;;;;;;;;;6.59;45.87;101309.84;5084445;28;19912;-84
2021/01/16 11:30:46;;;;;;;;;;;;;;;6.59;45.63;101298.25;5082571;28;20313;-84
2021/01/16 11:33:31;;;;;;;;;;;;;;;6.68;45.71;101292.00;5106574;28;19911;-83
2021/01/16 11:36:17;;;;;;;;;;;;;;;6.73;45.84;101302.78;5109416;28;19908;-83
2021/01/16 11:39:02;;;;;;;;;;;;;;;6.83;44.67;101291.94;5082986;28;20386;-83
2021/01/16 11:41:50;;;;;;;;;;;;;;;6.87;44.92;101287.59;5080969;28;19912;-84
2021/01/16 11:44:50;;;;;;;;;;;;;;;6.89;45.88;101287.31;5114715;28;19912;-83
2021/01/16 11:47:47;;;;;;;;;;;;;;;6.91;44.11;101274.31;5102199;28;19912;-83
2021/01/16 11:50:32;;;;;;;;;;;;;;;7.04;47.85;101272.94;5089992;28;19912;-85
2021/01/16 11:53:17;;;;;;;;;;;;;;;7.01;50.58;101273.50;5093240;28;20329;-83
2021/01/16 11:56:03;;;;;;;;;;;;;;;7.09;51.39;101270.19;5080272;28;19912;-85
2021/01/16 11:58:49;;;;;;;;;;;;;;;7.20;51.11;101261.78;5104138;28;20378;-85
2021/01/16 12:01:38;;;;;;;;;;;;;;;7.24;50.84;101259.31;5099151;28;19912;-85
2021/01/16 12:04:23;;;;;;;;;;;;;;;7.31;51.21;101259.81;5088615;28;20389;-83
2021/01/16 12:07:08;;;;;;;;;;;;;;;7.48;51.86;101262.94;5102661;28;20290;-84
2021/01/16 12:09:55;;;;;;;;;;;;;;;7.46;51.14;101248.91;5101230;28;19911;-84
2021/01/16 12:13:06;;;;;;;;;;;;;;;7.43;52.09;101249.44;5100904;28;19912;-83
2021/01/16 12:15:53;;;;;;;;;;;;;;;7.48;49.81;101240.47;5084848;28;19912;-83
2021/01/16 12:18:39;;;;;;;;;;;;;;;7.49;51.45;101236.69;5086814;28;19920;-83
2021/01/16 12:21:25;;;;;;;;;;;;;;;7.58;51.59;101235.00;5101010;28;19912;-84
2021/01/16 12:24:10;;;;;;;;;;;;;;;7.64;49.77;101233.88;5094068;28;19912;-83
2021/01/16 12:26:57;;;;;;;;;;;;;;;7.64;51.21;101229.25;5109795;28;19912;-84
2021/01/16 12:29:44;;;;;;;;;;;;;;;7.76;50.48;101226.19;5103899;28;19912;-84
2021/01/16 12:32:37;;;;;;;;;;;;;;;7.83;49.84;101223.13;5106491;28;19916;-84
2021/01/16 12:35:23;;;;;;;;;;;;;;;8.12;50.22;101213.94;5113906;28;19912;-87
2021/01/16 12:38:08;;;;;;;;;;;;;;;8.07;50.28;101202.34;5121659;28;19920;-86
2021/01/16 12:40:53;;;;;;;;;;;;;;;7.95;50.21;101216.28;5107498;28;19912;-87
2021/01/16 12:43:37;;;;;;;;;;;;;;;8.00;49.85;101199.16;5090509;28;19912;-87
2021/01/16 12:46:22;;;;;;;;;;;;;;;8.01;46.60;101207.00;5083913;28;19912;-90
2021/01/16 12:49:10;;;;;;;;;;;;;;;8.09;47.58;101197.44;5064336;28;19920;-85
2021/01/16 12:51:55;;;;;;;;;;;;;;;8.19;48.67;101194.63;5080197;28;19912;-85
2021/01/16 12:54:40;;;;;;;;;;;;;;;8.24;48.43;101193.75;5094104;28;19911;-85
2021/01/16 12:57:28;;;;;;;;;;;;;;;8.06;48.60;101190.72;5106076;28;19916;-86
2021/01/16 13:00:14;;;;;;;;;;;;;;;8.21;48.73;101188.94;5105666;28;20297;-85
2021/01/16 13:03:03;;;;;;;;;;;;;;;8.37;49.03;101191.22;5084155;28;19915;-86
2021/01/16 13:05:47;;;;;;;;;;;;;;;8.39;46.90;101191.72;5084364;28;19912;-84
2021/01/16 13:08:33;;;;;;;;;;;;;;;8.51;47.36;101178.59;5099708;28;19912;-84
2021/01/16 13:11:23;;;;;;;;;;;;;;;8.67;47.32;101170.25;5080373;28;20321;-84
2021/01/16 13:14:07;;;;;;;;;;;;;;;8.72;46.06;101171.00;5079814;28;19911;-85
2021/01/16 13:16:52;;;;;;;;;;;;;;;8.74;45.21;101176.09;5090050;28;19912;-84
2021/01/16 13:19:37;;;;;;;;;;;;;;;8.88;45.78;101172.41;5088989;28;20374;-83
2021/01/16 13:22:22;;;;;;;;;;;;;;;8.92;45.32;101172.63;5085324;28;20409;-83
2021/01/16 13:25:09;;;;;;;;;;;;;;;8.97;45.11;101162.50;5100655;22;19920;-81
2021/01/16 13:28:01;;;;;;;;;;;;;;;8.97;45.74;101154.38;5062146;28;20291;-82
2021/01/16 13:30:47;;;;;;;;;;;;;;;9.15;44.90;101160.06;5052629;28;19913;-83
2021/01/16 13:33:34;;;;;;;;;;;;;;;8.93;43.79;101157.97;5052617;28;19912;-82
2021/01/16 13:36:21;;;;;;;;;;;;;;;8.98;44.77;101149.75;5063065;28;19912;-81
2021/01/16 13:39:11;;;;;;;;;;;;;;;9.07;44.15;101153.41;5061516;28;19916;-81
2021/01/16 13:41:56;;;;;;;;;;;;;;;9.01;44.12;101151.88;5074720;28;20374;-81
2021/01/16 13:44:41;;;;;;;;;;;;;;;9.04;43.74;101151.28;5097567;28;20374;-81
2021/01/16 13:47:27;;;;;;;;;;;;;;;9.08;43.33;101155.03;5096691;28;19911;-81
2021/01/16 13:50:13;;;;;;;;;;;;;;;9.21;43.62;101143.41;5100377;28;20313;-81
2021/01/16 13:52:58;;;;;;;;;;;;;;;9.15;43.14;101144.59;5070228;28;19919;-81
2021/01/16 13:55:42;;;;;;;;;;;;;;;9.13;42.88;101152.25;5048367;28;19912;-81
2021/01/16 13:58:27;;;;;;;;;;;;;;;9.25;42.63;101149.88;5066847;28;19916;-81
2021/01/16 14:01:12;;;;;;;;;;;;;;;9.26;42.81;101146.06;5057699;28;19912;-81
2021/01/16 14:04:01;;;;;;;;;;;;;;;9.30;42.58;101146.25;5068014;28;20366;-81
2021/01/16 14:06:56;;;;;;;;;;;;;;;9.22;42.63;101149.66;5081769;28;20382;-81
2021/01/16 14:09:42;;;;;;;;;;;;;;;9.17;43.00;101136.97;5098318;28;19912;-81
2021/01/16 14:12:27;;;;;;;;;;;;;;;9.22;42.59;101141.53;5079354;28;19912;-81
2021/01/16 14:15:12;;;;;;;;;;;;;;;9.28;41.60;101143.88;5091905;28;19912;-81
2021/01/16 14:17:58;;;;;;;;;;;;;;;9.27;42.02;101138.72;5061661;28;20371;-81
2021/01/16 14:20:43;;;;;;;;;;;;;;;9.31;41.85;101135.13;5062025;28;19912;-81
2021/01/16 14:23:32;;;;;;;;;;;;;;;9.41;41.30;101134.94;5065502;28;19912;-81
2021/01/16 14:26:20;;;;;;;;;;;;;;;9.44;41.91;101137.09;5087067;28;19912;-81
2021/01/16 14:29:08;;;;;;;;;;;;;;;9.51;41.80;101130.44;5096532;28;19912;-82
2021/01/16 14:31:54;;;;;;;;;;;;;;;9.49;41.31;101136.19;5096216;28;19919;-81